sensor_id;sensor_type;location;lat;lon;timestamp;pressure;altitude;pressure_sealevel;temperature;humidity
69306;BME280;56427;51.580;4.656;2023-02-12T00:02:03;103822.91;;;6.97;100.00
69306;BME280;56427;51.580;4.656;2023-02-12T00:04:28;103818.72;;;6.91;100.00
69306;BME280;56427;51.580;4.656;2023-02-12T00:06:54;103817.78;;;6.94;100.00
69306;BME280;56427;51.580;4.656;2023-02-12T00:09:19;103819.50;;;6.95;100.00
69306;BME280;56427;51.580;4.656;2023-02-12T00:11:44;103822.06;;;6.96;100.00
69306;BME280;56427;51.580;4.656;2023-02-12T00:14:10;103818.50;;;7.00;100.00
69306;BME280;56427;51.580;4.656;2023-02-12T00:16:35;103816.50;;;7.15;100.00
69306;BME280;56427;51.580;4.656;2023-02-12T00:19:01;103811.97;;;7.26;100.00
69306;BME280;56427;51.580;4.656;2023-02-12T00:21:27;103807.72;;;7.24;100.00
69306;BME280;56427;51.580;4.656;2023-02-12T00:23:52;103805.56;;;7.02;100.00
69306;BME280;56427;51.580;4.656;2023-02-12T00:26:19;103807.31;;;7.02;100.00
69306;BME280;56427;51.580;4.656;2023-02-12T00:28:45;103807.63;;;7.27;100.00
69306;BME280;56427;51.580;4.656;2023-02-12T00:31:14;103810.88;;;6.96;100.00
69306;BME280;56427;51.580;4.656;2023-02-12T00:33:40;103818.41;;;7.07;100.00
69306;BME280;56427;51.580;4.656;2023-02-12T00:36:06;103817.22;;;6.79;100.00
69306;BME280;56427;51.580;4.656;2023-02-12T00:38:32;103818.41;;;6.63;100.00
69306;BME280;56427;51.580;4.656;2023-02-12T00:40:57;103829.75;;;6.53;100.00
69306;BME280;56427;51.580;4.656;2023-02-12T00:43:23;103824.56;;;6.54;100.00
69306;BME280;56427;51.580;4.656;2023-02-12T00:45:48;103836.66;;;6.52;100.00
69306;BME280;56427;51.580;4.656;2023-02-12T00:48:14;103828.28;;;6.39;100.00
69306;BME280;56427;51.580;4.656;2023-02-12T00:50:40;103834.41;;;6.32;100.00
69306;BME280;56427;51.580;4.656;2023-02-12T00:53:08;103839.56;;;6.34;100.00
69306;BME280;56427;51.580;4.656;2023-02-12T00:55:34;103839.50;;;6.37;100.00
69306;BME280;56427;51.580;4.656;2023-02-12T00:57:59;103838.56;;;6.41;100.00
69306;BME280;56427;51.580;4.656;2023-02-12T01:00:25;103838.53;;;6.42;100.00
69306;BME280;56427;51.580;4.656;2023-02-12T01:02:50;103829.16;;;6.38;100.00
69306;BME280;56427;51.580;4.656;2023-02-12T01:05:16;103826.63;;;6.35;100.00
69306;BME280;56427;51.580;4.656;2023-02-12T01:07:41;103831.63;;;6.43;100.00
69306;BME280;56427;51.580;4.656;2023-02-12T01:10:08;103829.06;;;6.43;100.00
69306;BME280;56427;51.580;4.656;2023-02-12T01:12:33;103823.53;;;6.65;100.00
69306;BME280;56427;51.580;4.656;2023-02-12T01:14:58;103830.66;;;6.50;100.00
69306;BME280;56427;51.580;4.656;2023-02-12T01:17:24;103830.97;;;6.33;100.00
69306;BME280;56427;51.580;4.656;2023-02-12T01:19:49;103828.28;;;6.38;100.00
69306;BME280;56427;51.580;4.656;2023-02-12T01:22:15;103831.88;;;6.31;100.00
69306;BME280;56427;51.580;4.656;2023-02-12T01:24:40;103822.34;;;6.34;100.00
69306;BME280;56427;51.580;4.656;2023-02-12T01:27:06;103824.13;;;6.31;100.00
69306;BME280;56427;51.580;4.656;2023-02-12T01:29:31;103823.59;;;6.10;100.00
69306;BME280;56427;51.580;4.656;2023-02-12T01:31:56;103813.00;;;6.29;100.00
69306;BME280;56427;51.580;4.656;2023-02-12T01:34:22;103820.56;;;6.36;100.00
69306;BME280;56427;51.580;4.656;2023-02-12T01:36:47;103814.56;;;6.36;100.00
69306;BME280;56427;51.580;4.656;2023-02-12T01:39:13;103826.31;;;6.52;100.00
69306;BME280;56427;51.580;4.656;2023-02-12T01:41:42;103827.19;;;6.51;100.00
69306;BME280;56427;51.580;4.656;2023-02-12T01:44:19;103823.25;;;6.33;100.00
69306;BME280;56427;51.580;4.656;2023-02-12T01:46:47;103826.53;;;6.41;100.00
69306;BME280;56427;51.580;4.656;2023-02-12T01:49:37;103829.03;;;6.44;100.00
69306;BME280;56427;51.580;4.656;2023-02-12T01:52:05;103828.41;;;6.32;100.00
69306;BME280;56427;51.580;4.656;2023-02-12T01:54:33;103833.44;;;6.38;100.00
69306;BME280;56427;51.580;4.656;2023-02-12T01:57:02;103839.22;;;6.52;100.00
69306;BME280;56427;51.580;4.656;2023-02-12T01:59:30;103837.66;;;6.43;100.00
69306;BME280;56427;51.580;4.656;2023-02-12T02:01:55;103830.97;;;6.33;100.00
69306;BME280;56427;51.580;4.656;2023-02-12T02:04:26;103819.97;;;6.23;100.00
69306;BME280;56427;51.580;4.656;2023-02-12T02:06:56;103824.28;;;6.21;100.00
69306;BME280;56427;51.580;4.656;2023-02-12T02:09:23;103832.84;;;6.25;100.00
69306;BME280;56427;51.580;4.656;2023-02-12T02:11:49;103828.06;;;6.52;100.00
69306;BME280;56427;51.580;4.656;2023-02-12T02:14:34;103823.47;;;6.18;100.00
69306;BME280;56427;51.580;4.656;2023-02-12T02:28:01;103827.50;;;6.34;100.00
69306;BME280;56427;51.580;4.656;2023-02-12T02:30:34;103825.75;;;6.35;100.00
69306;BME280;56427;51.580;4.656;2023-02-12T02:41:06;103827.38;;;6.42;100.00
69306;BME280;56427;51.580;4.656;2023-02-12T02:43:48;103821.41;;;6.40;100.00
69306;BME280;56427;51.580;4.656;2023-02-12T02:46:45;103814.56;;;6.37;100.00
69306;BME280;56427;51.580;4.656;2023-02-12T02:49:28;103817.88;;;6.44;100.00
69306;BME280;56427;51.580;4.656;2023-02-12T02:52:00;103824.81;;;6.40;100.00
69306;BME280;56427;51.580;4.656;2023-02-12T02:54:33;103810.91;;;6.48;100.00
69306;BME280;56427;51.580;4.656;2023-02-12T02:57:05;103813.53;;;6.46;100.00
69306;BME280;56427;51.580;4.656;2023-02-12T02:59:37;103817.84;;;6.45;100.00
69306;BME280;56427;51.580;4.656;2023-02-12T03:02:13;103818.00;;;6.36;100.00
69306;BME280;56427;51.580;4.656;2023-02-12T03:04:45;103816.38;;;6.31;100.00
69306;BME280;56427;51.580;4.656;2023-02-12T03:07:34;103807.59;;;6.41;100.00
69306;BME280;56427;51.580;4.656;2023-02-12T03:10:04;103806.97;;;6.28;100.00
69306;BME280;56427;51.580;4.656;2023-02-12T03:12:43;103814.00;;;6.18;100.00
69306;BME280;56427;51.580;4.656;2023-02-12T03:15:14;103823.34;;;6.25;100.00
69306;BME280;56427;51.580;4.656;2023-02-12T03:17:45;103809.41;;;6.37;100.00
69306;BME280;56427;51.580;4.656;2023-02-12T03:20:16;103813.53;;;6.46;100.00
69306;BME280;56427;51.580;4.656;2023-02-12T03:22:47;103815.25;;;6.47;100.00
69306;BME280;56427;51.580;4.656;2023-02-12T03:25:19;103799.72;;;6.49;100.00
69306;BME280;56427;51.580;4.656;2023-02-12T03:27:51;103803.88;;;6.57;100.00
69306;BME280;56427;51.580;4.656;2023-02-12T03:30:17;103812.59;;;6.50;100.00
69306;BME280;56427;51.580;4.656;2023-02-12T03:32:58;103812.91;;;6.33;100.00
69306;BME280;56427;51.580;4.656;2023-02-12T03:35:33;103809.66;;;6.22;100.00
69306;BME280;56427;51.580;4.656;2023-02-12T03:38:08;103808.94;;;6.14;100.00
69306;BME280;56427;51.580;4.656;2023-02-12T03:41:02;103806.41;;;6.12;100.00
69306;BME280;56427;51.580;4.656;2023-02-12T03:46:21;103811.53;;;6.14;100.00
69306;BME280;56427;51.580;4.656;2023-02-12T03:49:02;103796.88;;;6.16;100.00
69306;BME280;56427;51.580;4.656;2023-02-12T03:51:37;103808.00;;;6.18;100.00
69306;BME280;56427;51.580;4.656;2023-02-12T03:54:05;103804.72;;;6.08;100.00
69306;BME280;56427;51.580;4.656;2023-02-12T03:56:49;103802.91;;;6.13;100.00
69306;BME280;56427;51.580;4.656;2023-02-12T03:59:17;103809.56;;;6.26;100.00
69306;BME280;56427;51.580;4.656;2023-02-12T04:01:43;103803.63;;;6.23;100.00
69306;BME280;56427;51.580;4.656;2023-02-12T04:04:08;103814.91;;;6.17;100.00
69306;BME280;56427;51.580;4.656;2023-02-12T04:06:34;103810.59;;;6.16;100.00
69306;BME280;56427;51.580;4.656;2023-02-12T04:09:02;103815.81;;;6.13;100.00
69306;BME280;56427;51.580;4.656;2023-02-12T04:11:58;103824.09;;;6.32;100.00
69306;BME280;56427;51.580;4.656;2023-02-12T04:17:09;103818.41;;;6.12;100.00
69306;BME280;56427;51.580;4.656;2023-02-12T04:19:55;103820.91;;;6.18;100.00
69306;BME280;56427;51.580;4.656;2023-02-12T04:22:40;103820.34;;;6.50;100.00
69306;BME280;56427;51.580;4.656;2023-02-12T04:25:20;103830.38;;;6.17;100.00
69306;BME280;56427;51.580;4.656;2023-02-12T04:30:20;103838.19;;;6.13;100.00
69306;BME280;56427;51.580;4.656;2023-02-12T04:32:58;103842.50;;;6.12;100.00
69306;BME280;56427;51.580;4.656;2023-02-12T04:38:03;103845.28;;;5.98;100.00
69306;BME280;56427;51.580;4.656;2023-02-12T04:40:33;103839.22;;;6.02;100.00
69306;BME280;56427;51.580;4.656;2023-02-12T04:42:58;103846.25;;;5.89;100.00
69306;BME280;56427;51.580;4.656;2023-02-12T04:45:30;103853.91;;;5.97;100.00
69306;BME280;56427;51.580;4.656;2023-02-12T04:47:57;103856.34;;;6.05;100.00
69306;BME280;56427;51.580;4.656;2023-02-12T04:50:23;103851.47;;;5.85;100.00
69306;BME280;56427;51.580;4.656;2023-02-12T04:52:49;103849.72;;;5.85;100.00
69306;BME280;56427;51.580;4.656;2023-02-12T04:55:14;103850.66;;;5.81;100.00
69306;BME280;56427;51.580;4.656;2023-02-12T04:57:40;103850.59;;;5.86;100.00
69306;BME280;56427;51.580;4.656;2023-02-12T05:00:08;103853.13;;;5.89;100.00
69306;BME280;56427;51.580;4.656;2023-02-12T05:02:33;103846.91;;;6.04;100.00
69306;BME280;56427;51.580;4.656;2023-02-12T05:04:59;103844.28;;;6.07;100.00
69306;BME280;56427;51.580;4.656;2023-02-12T05:07:24;103849.56;;;5.99;100.00
69306;BME280;56427;51.580;4.656;2023-02-12T05:09:49;103854.38;;;6.21;100.00
69306;BME280;56427;51.580;4.656;2023-02-12T05:12:15;103849.59;;;5.95;100.00
69306;BME280;56427;51.580;4.656;2023-02-12T05:14:40;103841.88;;;5.96;100.00
69306;BME280;56427;51.580;4.656;2023-02-12T05:17:05;103844.44;;;5.96;100.00
69306;BME280;56427;51.580;4.656;2023-02-12T05:19:31;103838.53;;;5.88;100.00
69306;BME280;56427;51.580;4.656;2023-02-12T05:21:56;103839.41;;;5.85;100.00
69306;BME280;56427;51.580;4.656;2023-02-12T05:24:21;103847.25;;;5.79;100.00
69306;BME280;56427;51.580;4.656;2023-02-12T05:26:48;103845.44;;;5.86;100.00
69306;BME280;56427;51.580;4.656;2023-02-12T05:29:14;103842.13;;;5.78;100.00
69306;BME280;56427;51.580;4.656;2023-02-12T05:31:39;103841.09;;;5.88;100.00
69306;BME280;56427;51.580;4.656;2023-02-12T05:34:05;103837.34;;;6.11;100.00
69306;BME280;56427;51.580;4.656;2023-02-12T05:36:31;103840.75;;;6.13;100.00
69306;BME280;56427;51.580;4.656;2023-02-12T05:38:57;103841.75;;;6.04;100.00
69306;BME280;56427;51.580;4.656;2023-02-12T05:41:24;103844.91;;;6.21;100.00
69306;BME280;56427;51.580;4.656;2023-02-12T05:43:50;103842.19;;;6.31;100.00
69306;BME280;56427;51.580;4.656;2023-02-12T05:46:16;103845.34;;;5.92;100.00
69306;BME280;56427;51.580;4.656;2023-02-12T05:48:42;103853.09;;;5.92;100.00
69306;BME280;56427;51.580;4.656;2023-02-12T05:51:10;103848.72;;;5.96;100.00
69306;BME280;56427;51.580;4.656;2023-02-12T05:53:36;103855.63;;;5.94;100.00
69306;BME280;56427;51.580;4.656;2023-02-12T05:58:35;103847.09;;;5.90;100.00
69306;BME280;56427;51.580;4.656;2023-02-12T06:01:00;103852.06;;;6.05;100.00
69306;BME280;56427;51.580;4.656;2023-02-12T06:03:26;103852.91;;;6.04;100.00
69306;BME280;56427;51.580;4.656;2023-02-12T06:05:51;103852.91;;;6.04;100.00
69306;BME280;56427;51.580;4.656;2023-02-12T06:08:17;103858.19;;;5.97;100.00
69306;BME280;56427;51.580;4.656;2023-02-12T06:10:42;103854.78;;;5.92;100.00
69306;BME280;56427;51.580;4.656;2023-02-12T06:13:07;103853.78;;;6.03;100.00
69306;BME280;56427;51.580;4.656;2023-02-12T06:15:35;103858.88;;;6.08;100.00
69306;BME280;56427;51.580;4.656;2023-02-12T06:18:01;103857.03;;;6.15;100.00
69306;BME280;56427;51.580;4.656;2023-02-12T06:20:26;103856.00;;;6.26;100.00
69306;BME280;56427;51.580;4.656;2023-02-12T06:22:51;103858.31;;;5.87;100.00
69306;BME280;56427;51.580;4.656;2023-02-12T06:25:17;103856.66;;;5.82;100.00
69306;BME280;56427;51.580;4.656;2023-02-12T06:27:42;103862.50;;;5.95;100.00
69306;BME280;56427;51.580;4.656;2023-02-12T06:30:08;103852.28;;;5.87;100.00
69306;BME280;56427;51.580;4.656;2023-02-12T06:32:33;103861.72;;;5.89;100.00
69306;BME280;56427;51.580;4.656;2023-02-12T06:34:59;103854.84;;;5.87;100.00
69306;BME280;56427;51.580;4.656;2023-02-12T06:37:24;103853.09;;;5.92;100.00
69306;BME280;56427;51.580;4.656;2023-02-12T06:39:49;103859.91;;;5.95;100.00
69306;BME280;56427;51.580;4.656;2023-02-12T06:42:15;103854.69;;;6.01;100.00
69306;BME280;56427;51.580;4.656;2023-02-12T06:44:40;103858.13;;;6.00;100.00
69306;BME280;56427;51.580;4.656;2023-02-12T06:47:06;103856.44;;;6.00;100.00
69306;BME280;56427;51.580;4.656;2023-02-12T06:49:31;103862.41;;;6.02;100.00
69306;BME280;56427;51.580;4.656;2023-02-12T06:51:56;103861.59;;;6.00;100.00
69306;BME280;56427;51.580;4.656;2023-02-12T06:54:22;103868.41;;;6.03;100.00
69306;BME280;56427;51.580;4.656;2023-02-12T06:56:47;103868.56;;;5.90;100.00
69306;BME280;56427;51.580;4.656;2023-02-12T06:59:14;103871.94;;;5.97;100.00
69306;BME280;56427;51.580;4.656;2023-02-12T07:01:40;103876.09;;;6.06;100.00
69306;BME280;56427;51.580;4.656;2023-02-12T07:04:05;103877.69;;;6.15;100.00
69306;BME280;56427;51.580;4.656;2023-02-12T07:06:33;103882.94;;;6.08;100.00
69306;BME280;56427;51.580;4.656;2023-02-12T07:08:59;103882.78;;;6.19;100.00
69306;BME280;56427;51.580;4.656;2023-02-12T07:11:28;103878.38;;;6.26;100.00
69306;BME280;56427;51.580;4.656;2023-02-12T07:13:54;103876.63;;;6.26;100.00
69306;BME280;56427;51.580;4.656;2023-02-12T07:16:20;103878.16;;;6.40;100.00
69306;BME280;56427;51.580;4.656;2023-02-12T07:18:46;103886.09;;;6.26;100.00
69306;BME280;56427;51.580;4.656;2023-02-12T07:21:13;103881.25;;;6.07;100.00
69306;BME280;56427;51.580;4.656;2023-02-12T07:23:38;103887.09;;;6.17;100.00
69306;BME280;56427;51.580;4.656;2023-02-12T07:26:07;103890.75;;;6.04;100.00
69306;BME280;56427;51.580;4.656;2023-02-12T07:28:33;103901.03;;;6.07;100.00
69306;BME280;56427;51.580;4.656;2023-02-12T07:31:06;103899.28;;;6.07;100.00
69306;BME280;56427;51.580;4.656;2023-02-12T07:33:33;103900.03;;;6.14;100.00
69306;BME280;56427;51.580;4.656;2023-02-12T07:36:00;103905.91;;;6.24;100.00
69306;BME280;56427;51.580;4.656;2023-02-12T07:38:25;103903.34;;;6.22;100.00
69306;BME280;56427;51.580;4.656;2023-02-12T07:40:50;103914.56;;;6.20;100.00
69306;BME280;56427;51.580;4.656;2023-02-12T07:43:16;103902.41;;;6.26;100.00
69306;BME280;56427;51.580;4.656;2023-02-12T07:45:41;103907.53;;;6.30;100.00
69306;BME280;56427;51.580;4.656;2023-02-12T07:48:06;103911.81;;;6.32;100.00
69306;BME280;56427;51.580;4.656;2023-02-12T07:50:32;103911.88;;;6.28;100.00
69306;BME280;56427;51.580;4.656;2023-02-12T07:52:57;103910.13;;;6.30;100.00
69306;BME280;56427;51.580;4.656;2023-02-12T07:55:22;103915.16;;;6.37;100.00
69306;BME280;56427;51.580;4.656;2023-02-12T07:57:48;103909.91;;;6.43;100.00
69306;BME280;56427;51.580;4.656;2023-02-12T08:00:13;103903.88;;;6.43;100.00
69306;BME280;56427;51.580;4.656;2023-02-12T08:02:39;103899.41;;;6.53;100.00
69306;BME280;56427;51.580;4.656;2023-02-12T08:05:05;103905.22;;;6.66;100.00
69306;BME280;56427;51.580;4.656;2023-02-12T08:07:30;103913.88;;;6.65;100.00
69306;BME280;56427;51.580;4.656;2023-02-12T08:09:56;103915.97;;;6.41;100.00
69306;BME280;56427;51.580;4.656;2023-02-12T08:12:21;103921.31;;;6.29;100.00
69306;BME280;56427;51.580;4.656;2023-02-12T08:14:48;103930.63;;;6.37;100.00
69306;BME280;56427;51.580;4.656;2023-02-12T08:17:13;103923.75;;;6.36;100.00
69306;BME280;56427;51.580;4.656;2023-02-12T08:19:39;103924.69;;;6.34;100.00
69306;BME280;56427;51.580;4.656;2023-02-12T08:22:04;103922.22;;;6.24;100.00
69306;BME280;56427;51.580;4.656;2023-02-12T08:24:30;103925.38;;;6.45;100.00
69306;BME280;56427;51.580;4.656;2023-02-12T08:26:56;103923.75;;;6.38;100.00
69306;BME280;56427;51.580;4.656;2023-02-12T08:29:27;103928.75;;;6.49;100.00
69306;BME280;56427;51.580;4.656;2023-02-12T08:31:58;103926.78;;;6.63;100.00
69306;BME280;56427;51.580;4.656;2023-02-12T08:34:27;103924.44;;;6.49;100.00
69306;BME280;56427;51.580;4.656;2023-02-12T08:36:54;103920.25;;;6.42;100.00
69306;BME280;56427;51.580;4.656;2023-02-12T08:39:20;103916.84;;;6.40;100.00
69306;BME280;56427;51.580;4.656;2023-02-12T08:41:46;103926.09;;;6.53;100.00
69306;BME280;56427;51.580;4.656;2023-02-12T08:44:12;103922.78;;;6.45;100.00
69306;BME280;56427;51.580;4.656;2023-02-12T08:46:42;103928.81;;;6.44;100.00
69306;BME280;56427;51.580;4.656;2023-02-12T08:49:18;103926.97;;;6.51;100.00
69306;BME280;56427;51.580;4.656;2023-02-12T08:51:46;103927.50;;;6.71;100.00
69306;BME280;56427;51.580;4.656;2023-02-12T08:54:20;103939.25;;;6.89;100.00
69306;BME280;56427;51.580;4.656;2023-02-12T08:56:46;103929.94;;;6.79;100.00
69306;BME280;56427;51.580;4.656;2023-02-12T08:59:13;103937.78;;;6.74;100.00
69306;BME280;56427;51.580;4.656;2023-02-12T09:01:40;103936.91;;;6.74;100.00
69306;BME280;56427;51.580;4.656;2023-02-12T09:04:06;103942.28;;;6.63;100.00
69306;BME280;56427;51.580;4.656;2023-02-12T09:06:32;103945.69;;;6.65;100.00
69306;BME280;56427;51.580;4.656;2023-02-12T09:08:58;103938.56;;;6.79;100.00
69306;BME280;56427;51.580;4.656;2023-02-12T09:11:26;103941.16;;;6.78;100.00
69306;BME280;56427;51.580;4.656;2023-02-12T09:14:02;103935.88;;;6.84;100.00
69306;BME280;56427;51.580;4.656;2023-02-12T09:16:30;103937.50;;;6.90;100.00
69306;BME280;56427;51.580;4.656;2023-02-12T09:18:56;103948.50;;;7.01;100.00
69306;BME280;56427;51.580;4.656;2023-02-12T09:21:22;103951.13;;;6.98;100.00
69306;BME280;56427;51.580;4.656;2023-02-12T09:23:48;103943.47;;;6.93;100.00
69306;BME280;56427;51.580;4.656;2023-02-12T09:26:16;103952.72;;;7.05;100.00
69306;BME280;56427;51.580;4.656;2023-02-12T09:28:42;103941.47;;;7.09;100.00
69306;BME280;56427;51.580;4.656;2023-02-12T09:31:13;103954.47;;;7.05;100.00
69306;BME280;56427;51.580;4.656;2023-02-12T09:33:39;103957.06;;;7.03;100.00
69306;BME280;56427;51.580;4.656;2023-02-12T09:36:15;103955.19;;;7.11;100.00
69306;BME280;56427;51.580;4.656;2023-02-12T09:38:41;103949.31;;;7.03;100.00
69306;BME280;56427;51.580;4.656;2023-02-12T09:47:04;103956.16;;;7.06;100.00
69306;BME280;56427;51.580;4.656;2023-02-12T09:52:49;103949.88;;;7.21;100.00
69306;BME280;56427;51.580;4.656;2023-02-12T09:55:17;103941.94;;;7.28;100.00
69306;BME280;56427;51.580;4.656;2023-02-12T09:57:43;103953.59;;;7.49;100.00
69306;BME280;56427;51.580;4.656;2023-02-12T10:00:29;103950.38;;;7.38;100.00
69306;BME280;56427;51.580;4.656;2023-02-12T10:02:59;103952.28;;;7.28;100.00
69306;BME280;56427;51.580;4.656;2023-02-12T10:05:29;103953.41;;;7.15;100.00
69306;BME280;56427;51.580;4.656;2023-02-12T10:08:27;103961.91;;;7.20;100.00
69306;BME280;56427;51.580;4.656;2023-02-12T10:28:32;103956.00;;;7.59;100.00
69306;BME280;56427;51.580;4.656;2023-02-12T10:31:08;103960.19;;;7.64;100.00
69306;BME280;56427;51.580;4.656;2023-02-12T10:33:40;103954.13;;;7.67;100.00
69306;BME280;56427;51.580;4.656;2023-02-12T10:36:23;103951.31;;;7.76;100.00
69306;BME280;56427;51.580;4.656;2023-02-12T10:41:53;103947.16;;;7.70;100.00
69306;BME280;56427;51.580;4.656;2023-02-12T10:44:19;103946.38;;;7.67;100.00
69306;BME280;56427;51.580;4.656;2023-02-12T10:46:44;103947.63;;;7.89;100.00
69306;BME280;56427;51.580;4.656;2023-02-12T10:49:16;103949.66;;;7.73;100.00
69306;BME280;56427;51.580;4.656;2023-02-12T10:54:35;103944.81;;;7.99;100.00
69306;BME280;56427;51.580;4.656;2023-02-12T10:57:29;103945.38;;;8.11;100.00
69306;BME280;56427;51.580;4.656;2023-02-12T11:00:13;103947.63;;;7.89;100.00
69306;BME280;56427;51.580;4.656;2023-02-12T11:02:39;103958.41;;;7.66;100.00
69306;BME280;56427;51.580;4.656;2023-02-12T11:05:24;103953.91;;;7.76;100.00
69306;BME280;56427;51.580;4.656;2023-02-12T11:07:50;103952.44;;;7.64;100.00
69306;BME280;56427;51.580;4.656;2023-02-12T11:10:26;103945.97;;;7.85;100.00
69306;BME280;56427;51.580;4.656;2023-02-12T11:12:52;103946.69;;;7.92;100.00
69306;BME280;56427;51.580;4.656;2023-02-12T11:15:23;103945.03;;;7.89;100.00
69306;BME280;56427;51.580;4.656;2023-02-12T11:18:06;103939.47;;;8.06;100.00
69306;BME280;56427;51.580;4.656;2023-02-12T11:20:54;103940.72;;;7.88;100.00
69306;BME280;56427;51.580;4.656;2023-02-12T11:23:29;103940.53;;;7.98;100.00
69306;BME280;56427;51.580;4.656;2023-02-12T11:26:02;103931.03;;;7.98;100.00
69306;BME280;56427;51.580;4.656;2023-02-12T11:28:30;103940.78;;;7.85;100.00
69306;BME280;56427;51.580;4.656;2023-02-12T11:33:34;103928.59;;;7.90;100.00
69306;BME280;56427;51.580;4.656;2023-02-12T11:36:25;103920.03;;;7.88;100.00
69306;BME280;56427;51.580;4.656;2023-02-12T11:38:56;103922.13;;;8.10;100.00
69306;BME280;56427;51.580;4.656;2023-02-12T11:41:35;103928.28;;;8.06;100.00
69306;BME280;56427;51.580;4.656;2023-02-12T11:44:11;103915.38;;;8.04;100.00
69306;BME280;56427;51.580;4.656;2023-02-12T11:46:37;103918.81;;;8.05;100.00
69306;BME280;56427;51.580;4.656;2023-02-12T11:49:05;103918.50;;;8.17;100.00
69306;BME280;56427;51.580;4.656;2023-02-12T11:51:33;103919.28;;;8.22;100.00
69306;BME280;56427;51.580;4.656;2023-02-12T11:54:02;103924.34;;;8.25;100.00
69306;BME280;56427;51.580;4.656;2023-02-12T11:56:45;103918.75;;;8.08;100.00
69306;BME280;56427;51.580;4.656;2023-02-12T11:59:35;103915.25;;;8.09;100.00
69306;BME280;56427;51.580;4.656;2023-02-12T12:02:23;103915.88;;;8.19;100.00
69306;BME280;56427;51.580;4.656;2023-02-12T12:04:52;103918.81;;;8.05;100.00
69306;BME280;56427;51.580;4.656;2023-02-12T12:07:28;103913.75;;;7.99;100.00
69306;BME280;56427;51.580;4.656;2023-02-12T12:10:02;103912.25;;;8.27;100.00
69306;BME280;56427;51.580;4.656;2023-02-12T12:12:43;103898.97;;;8.41;100.00
69306;BME280;56427;51.580;4.656;2023-02-12T12:18:30;103895.81;;;8.28;100.00
69306;BME280;56427;51.580;4.656;2023-02-12T12:21:28;103899.16;;;8.32;100.00
69306;BME280;56427;51.580;4.656;2023-02-12T12:24:02;103894.63;;;8.42;100.00
69306;BME280;56427;51.580;4.656;2023-02-12T12:26:30;103890.72;;;8.61;100.00
69306;BME280;56427;51.580;4.656;2023-02-12T12:29:25;103881.59;;;8.46;100.00
69306;BME280;56427;51.580;4.656;2023-02-12T12:32:03;103882.94;;;8.25;100.00
69306;BME280;56427;51.580;4.656;2023-02-12T12:34:31;103880.09;;;8.72;100.00
69306;BME280;56427;51.580;4.656;2023-02-12T12:40:12;103868.22;;;8.29;100.00
69306;BME280;56427;51.580;4.656;2023-02-12T12:48:24;103872.44;;;8.99;100.00
69306;BME280;56427;51.580;4.656;2023-02-12T12:51:33;103871.59;;;8.67;100.00
69306;BME280;56427;51.580;4.656;2023-02-12T12:54:20;103865.88;;;8.54;100.00
69306;BME280;56427;51.580;4.656;2023-02-12T13:10:56;103848.03;;;8.43;100.00
69306;BME280;56427;51.580;4.656;2023-02-12T13:13:24;103849.91;;;8.37;100.00
69306;BME280;56427;51.580;4.656;2023-02-12T13:16:10;103840.25;;;8.43;100.00
69306;BME280;56427;51.580;4.656;2023-02-12T13:21:43;103834.78;;;8.56;100.00
69306;BME280;56427;51.580;4.656;2023-02-12T13:24:21;103826.50;;;8.74;100.00
69306;BME280;56427;51.580;4.656;2023-02-12T13:27:05;103827.44;;;9.33;100.00
69306;BME280;56427;51.580;4.656;2023-02-12T13:29:38;103818.00;;;9.30;100.00
69306;BME280;56427;51.580;4.656;2023-02-12T13:32:22;103821.31;;;9.06;100.00
69306;BME280;56427;51.580;4.656;2023-02-12T13:34:52;103828.75;;;8.55;100.00
69306;BME280;56427;51.580;4.656;2023-02-12T13:37:40;103817.94;;;8.72;100.00
69306;BME280;56427;51.580;4.656;2023-02-12T13:40:15;103822.38;;;8.98;100.00
69306;BME280;56427;51.580;4.656;2023-02-12T13:45:48;103807.31;;;8.81;100.00
69306;BME280;56427;51.580;4.656;2023-02-12T13:48:48;103808.38;;;8.74;100.00
69306;BME280;56427;51.580;4.656;2023-02-12T14:01:59;103805.22;;;8.94;100.00
69306;BME280;56427;51.580;4.656;2023-02-12T14:04:30;103799.41;;;8.55;100.00
69306;BME280;56427;51.580;4.656;2023-02-12T14:07:02;103799.72;;;8.44;100.00
69306;BME280;56427;51.580;4.656;2023-02-12T14:09:35;103801.25;;;8.82;100.00
69306;BME280;56427;51.580;4.656;2023-02-12T14:12:04;103796.59;;;9.24;100.00
69306;BME280;56427;51.580;4.656;2023-02-12T14:14:38;103796.66;;;8.92;100.00
69306;BME280;56427;51.580;4.656;2023-02-12T14:20:28;103793.06;;;8.66;100.00
69306;BME280;56427;51.580;4.656;2023-02-12T14:22:58;103790.66;;;8.60;100.00
69306;BME280;56427;51.580;4.656;2023-02-12T14:27:56;103791.84;;;8.80;100.00
69306;BME280;56427;51.580;4.656;2023-02-12T14:30:36;103795.56;;;8.70;100.00
69306;BME280;56427;51.580;4.656;2023-02-12T14:33:23;103790.41;;;8.35;100.00
69306;BME280;56427;51.580;4.656;2023-02-12T14:36:12;103784.69;;;8.88;100.00
69306;BME280;56427;51.580;4.656;2023-02-12T14:41:36;103781.13;;;8.61;100.00
69306;BME280;56427;51.580;4.656;2023-02-12T14:47:11;103784.16;;;8.77;100.00
69306;BME280;56427;51.580;4.656;2023-02-12T14:49:47;103785.06;;;8.74;100.00
69306;BME280;56427;51.580;4.656;2023-02-12T14:52:17;103778.59;;;8.59;100.00
69306;BME280;56427;51.580;4.656;2023-02-12T15:05:29;103787.66;;;8.74;100.00
69306;BME280;56427;51.580;4.656;2023-02-12T15:08:04;103777.72;;;8.60;100.00
69306;BME280;56427;51.580;4.656;2023-02-12T15:10:38;103776.38;;;8.77;100.00
69306;BME280;56427;51.580;4.656;2023-02-12T15:13:24;103784.84;;;8.52;100.00
69306;BME280;56427;51.580;4.656;2023-02-12T15:18:47;103778.09;;;8.76;100.00
69306;BME280;56427;51.580;4.656;2023-02-12T15:21:27;103776.13;;;8.55;100.00
69306;BME280;56427;51.580;4.656;2023-02-12T15:24:02;103775.84;;;8.33;100.00